logo
Search for airport 
image banner adimage banner adimage banner ad
image banner ad

SVJR - Hacienda Rio Yaza

Located in Zulia, Venezuela

ICAO - , IATA -

Data provided by Airmate  

General information

Coordinates: N9°51'0" W72°33'0"
Elevation is 212 feet MSL.
 
View others Airports in Zulia

Operational data

Special qualification required
Current time UTC:
Current local time:
Weather at : - ( 0 km )
METAR: KISO 191256Z 09007KT 10SM CLR 25/20 A3033
View NOTAMs / SUP AIP / TFR affecting this airport [VIEW]
Communications frequencies: [VIEW]

Runways:

RWY identifierQFULength (ft)Width (ft)SurfaceLDA (ft)
1300UNK
3100UNK

Airport contact information

Address: Zulia Venezuela

Satellite view of SVJR